createdAt,value
2019-03-21T00:01:19.286Z,9.37
2019-03-21T00:03:50.228Z,11.13
2019-03-21T00:06:19.878Z,10.47
2019-03-21T00:08:49.501Z,9.27
2019-03-21T00:11:54.597Z,16.87
2019-03-21T00:14:54.551Z,9.47
2019-03-21T00:17:26.983Z,10.50
2019-03-21T00:19:57.569Z,9.47
2019-03-21T00:22:28.062Z,10.30
2019-03-21T00:24:57.413Z,9.97
2019-03-21T00:27:26.873Z,9.70
2019-03-21T00:29:56.257Z,14.60
2019-03-21T00:32:25.620Z,10.27
2019-03-21T00:34:55.018Z,15.40
2019-03-21T00:37:24.448Z,9.80
2019-03-21T00:39:53.849Z,13.17
2019-03-21T00:42:23.357Z,14.73
2019-03-21T00:44:52.705Z,8.90
2019-03-21T00:47:22.083Z,11.10
2019-03-21T00:49:51.826Z,8.87
2019-03-21T00:52:21.236Z,8.43
2019-03-21T00:54:50.955Z,8.90
2019-03-21T00:57:20.642Z,11.47
2019-03-21T00:59:50.008Z,9.07
2019-03-21T01:02:19.484Z,9.50
2019-03-21T01:04:48.845Z,9.63
2019-03-21T01:07:18.185Z,9.57
2019-03-21T01:09:47.630Z,10.00
2019-03-21T01:12:17.248Z,9.73
2019-03-21T01:14:46.689Z,7.87
2019-03-21T01:17:16.037Z,7.63
2019-03-21T01:19:45.633Z,9.27
2019-03-21T01:22:14.983Z,9.40
2019-03-21T01:24:44.380Z,9.83
2019-03-21T01:27:13.758Z,9.47
2019-03-21T01:29:43.136Z,13.97
2019-03-21T01:32:12.492Z,12.97
2019-03-21T01:34:41.846Z,9.07
2019-03-21T01:37:11.197Z,9.93
2019-03-21T01:39:40.565Z,12.17
2019-03-21T01:42:09.914Z,9.30
2019-03-21T01:44:41.269Z,14.27
2019-03-21T01:47:10.896Z,9.50
2019-03-21T01:49:40.527Z,8.10
2019-03-21T01:52:09.877Z,8.57
2019-03-21T01:54:39.210Z,8.47
2019-03-21T01:57:08.577Z,11.90
2019-03-21T01:59:37.932Z,16.70
2019-03-21T02:02:07.335Z,9.13
2019-03-21T02:04:36.690Z,9.00
2019-03-21T02:07:06.152Z,8.57
2019-03-21T02:09:35.506Z,8.80
2019-03-21T02:12:05.540Z,8.10
2019-03-21T02:14:35.153Z,11.53
2019-03-21T02:17:05.084Z,12.00
2019-03-21T02:19:34.437Z,10.27
2019-03-21T02:22:03.889Z,9.43
2019-03-21T02:24:33.237Z,9.03
2019-03-21T02:27:02.606Z,10.03
2019-03-21T02:29:32.325Z,13.90
2019-03-21T02:32:01.739Z,9.10
2019-03-21T02:34:31.161Z,8.20
2019-03-21T02:37:00.698Z,8.63
2019-03-21T02:39:30.068Z,10.90
2019-03-21T02:41:59.696Z,10.63
2019-03-21T02:44:29.042Z,11.00
2019-03-21T02:46:58.392Z,8.50
2019-03-21T02:49:27.749Z,18.73
2019-03-21T02:51:57.257Z,9.50
2019-03-21T02:54:26.623Z,9.77
2019-03-21T02:56:56.045Z,8.87
2019-03-21T02:59:25.400Z,10.30
2019-03-21T03:01:55.493Z,10.43
2019-03-21T03:04:24.839Z,9.27
2019-03-21T03:06:54.198Z,11.33
2019-03-21T03:09:23.782Z,8.80
2019-03-21T03:11:53.305Z,8.07
2019-03-21T03:14:22.679Z,9.43
2019-03-21T03:16:52.156Z,9.57
2019-03-21T03:19:21.614Z,8.77
2019-03-21T03:21:51.054Z,8.63
2019-03-21T03:24:22.788Z,9.33
2019-03-21T03:26:52.166Z,14.10
2019-03-21T03:29:21.811Z,9.63
2019-03-21T03:31:51.243Z,9.50
2019-03-21T03:34:20.914Z,9.50
2019-03-21T03:36:50.740Z,8.33
2019-03-21T03:39:20.155Z,8.33
2019-03-21T03:41:49.979Z,8.70
2019-03-21T03:44:19.657Z,9.43
2019-03-21T03:46:49.074Z,7.97
2019-03-21T03:49:18.540Z,8.07
2019-03-21T03:51:48.132Z,9.10
2019-03-21T03:54:17.552Z,7.27
2019-03-21T03:56:47.387Z,8.33
2019-03-21T03:59:16.905Z,8.13
2019-03-21T04:01:46.422Z,7.83
2019-03-21T04:04:16.021Z,9.07
2019-03-21T04:06:45.467Z,8.57
2019-03-21T04:09:14.837Z,8.67
2019-03-21T04:11:44.741Z,8.03
2019-03-21T04:14:14.422Z,14.07
2019-03-21T04:16:43.782Z,10.90
2019-03-21T04:19:13.250Z,8.47
2019-03-21T04:21:43.896Z,8.87
2019-03-21T04:24:13.440Z,16.03
2019-03-21T04:26:42.810Z,8.67
2019-03-21T04:29:12.189Z,10.87
2019-03-21T04:31:41.574Z,10.57
2019-03-21T04:34:11.070Z,8.50
2019-03-21T04:36:40.922Z,8.57
2019-03-21T04:39:11.330Z,8.53
2019-03-21T04:41:41.654Z,8.13
2019-03-21T04:44:11.125Z,9.10
2019-03-21T04:46:40.486Z,11.40
2019-03-21T04:49:09.851Z,8.43
2019-03-21T04:51:39.209Z,8.30
2019-03-21T04:54:08.603Z,12.53
2019-03-21T04:56:38.079Z,12.00
2019-03-21T04:59:07.520Z,8.00
2019-03-21T05:01:36.957Z,7.33
2019-03-21T05:04:07.071Z,11.80
2019-03-21T05:06:36.439Z,10.30
2019-03-21T05:09:08.946Z,8.43
2019-03-21T05:11:38.636Z,9.97
2019-03-21T05:14:08.082Z,26.77
2019-03-21T05:16:37.908Z,12.67
2019-03-21T05:19:07.287Z,9.27
2019-03-21T05:21:36.717Z,9.43
2019-03-21T05:24:06.246Z,9.20
2019-03-21T05:26:35.626Z,10.07
2019-03-21T05:29:05.362Z,11.07
2019-03-21T05:31:35.334Z,11.77
2019-03-21T05:34:04.863Z,11.87
2019-03-21T05:36:34.545Z,9.90
2019-03-21T05:39:06.271Z,9.20
2019-03-21T05:41:35.704Z,10.13
2019-03-21T05:44:16.430Z,13.23
2019-03-21T05:46:46.037Z,11.23
2019-03-21T05:49:15.393Z,10.47
2019-03-21T05:51:44.820Z,14.33
2019-03-21T05:54:14.210Z,13.87
2019-03-21T05:56:43.682Z,17.40
2019-03-21T05:59:13.057Z,16.10
2019-03-21T06:01:42.604Z,12.87
2019-03-21T06:04:12.089Z,11.47
2019-03-21T06:06:57.646Z,17.13
2019-03-21T06:09:27.029Z,13.27
2019-03-21T06:11:58.084Z,12.77
2019-03-21T06:14:28.209Z,15.87
2019-03-21T06:16:57.635Z,9.80
2019-03-21T06:20:20.184Z,10.50
2019-03-21T06:23:06.194Z,12.80
2019-03-21T06:25:55.035Z,11.80
2019-03-21T06:28:24.417Z,14.20
2019-03-21T06:30:54.102Z,11.17
2019-03-21T06:33:23.487Z,11.73
2019-03-21T06:35:52.958Z,11.10
2019-03-21T06:38:22.341Z,16.83
2019-03-21T06:40:51.722Z,11.60
2019-03-21T06:43:21.523Z,8.93
2019-03-21T06:45:51.831Z,10.43
2019-03-21T06:48:21.306Z,11.00
2019-03-21T06:50:50.794Z,13.60
2019-03-21T06:53:20.193Z,15.27
2019-03-21T06:55:49.807Z,11.47
2019-03-21T06:58:19.465Z,13.27
2019-03-21T07:00:49.066Z,9.37
2019-03-21T07:03:18.711Z,11.83
2019-03-21T07:05:49.362Z,12.20
2019-03-21T07:08:18.827Z,11.40
2019-03-21T07:10:48.201Z,14.10
2019-03-21T07:13:18.122Z,10.63
2019-03-21T07:15:47.567Z,8.60
2019-03-21T07:18:17.245Z,12.40
2019-03-21T07:20:46.608Z,10.83
2019-03-21T07:23:16.553Z,10.77
2019-03-21T07:25:45.991Z,7.47
2019-03-21T07:28:15.522Z,6.70
2019-03-21T07:30:44.985Z,4.97
2019-03-21T07:33:14.438Z,5.03
2019-03-21T07:35:43.981Z,8.73
2019-03-21T07:38:13.341Z,10.00
2019-03-21T07:40:42.766Z,11.80
2019-03-21T07:43:12.153Z,5.20
2019-03-21T07:45:42.108Z,4.77
2019-03-21T07:48:11.479Z,4.37
2019-03-21T07:50:40.916Z,5.00
2019-03-21T07:53:10.487Z,4.83
2019-03-21T07:55:39.932Z,6.17
2019-03-21T07:58:09.497Z,4.40
2019-03-21T08:00:39.293Z,7.93
2019-03-21T08:03:08.817Z,5.03
2019-03-21T08:05:40.613Z,4.67
2019-03-21T08:08:09.374Z,6.37
2019-03-21T08:10:38.863Z,6.97
2019-03-21T08:13:08.305Z,3.57
2019-03-21T08:15:38.126Z,4.60
2019-03-21T08:18:07.662Z,6.03
2019-03-21T08:20:37.116Z,3.13
2019-03-21T08:23:06.554Z,4.40
2019-03-21T08:25:36.205Z,5.77
2019-03-21T08:28:05.784Z,5.37
2019-03-21T08:30:35.886Z,8.73
2019-03-21T08:33:05.732Z,5.73
2019-03-21T08:35:35.271Z,5.90
2019-03-21T08:38:04.805Z,4.60
2019-03-21T08:40:34.248Z,7.37
2019-03-21T08:43:03.677Z,4.90
2019-03-21T08:45:33.173Z,5.13
2019-03-21T08:48:02.608Z,3.33
2019-03-21T08:50:33.301Z,4.97
2019-03-21T08:53:02.811Z,5.00
2019-03-21T08:55:32.355Z,9.43
2019-03-21T08:58:01.816Z,7.47
2019-03-21T09:00:34.404Z,4.77
2019-03-21T09:03:02.404Z,4.60
2019-03-21T09:05:31.840Z,7.93
2019-03-21T09:08:01.281Z,4.87
2019-03-21T09:10:30.704Z,3.57
2019-03-21T09:13:00.088Z,2.60
2019-03-21T09:15:29.865Z,5.27
2019-03-21T09:18:00.651Z,2.30
2019-03-21T09:20:30.062Z,4.30
2019-03-21T09:22:59.675Z,6.17
2019-03-21T09:25:29.117Z,4.63
2019-03-21T09:28:02.816Z,4.17
2019-03-21T09:30:29.697Z,6.50
2019-03-21T09:32:59.229Z,2.67
2019-03-21T09:35:28.699Z,7.80
2019-03-21T09:37:58.085Z,8.70
2019-03-21T09:40:27.478Z,3.60
2019-03-21T09:42:57.354Z,4.60
2019-03-21T09:45:26.801Z,4.83
2019-03-21T09:47:56.588Z,5.93
2019-03-21T09:50:28.320Z,4.70
2019-03-21T09:52:57.870Z,4.77
2019-03-21T09:55:27.294Z,9.20
2019-03-21T09:57:56.751Z,3.43
2019-03-21T10:00:34.002Z,9.70
2019-03-21T10:03:03.960Z,3.73
2019-03-21T10:05:33.392Z,6.43
2019-03-21T10:08:03.075Z,4.00
2019-03-21T10:10:32.844Z,4.77
2019-03-21T10:13:02.466Z,8.03
2019-03-21T10:15:32.301Z,5.67
2019-03-21T10:18:01.745Z,6.00
2019-03-21T10:20:31.103Z,5.80
2019-03-21T10:23:00.509Z,4.00
2019-03-21T10:25:29.957Z,4.97
2019-03-21T10:27:59.729Z,4.67
2019-03-21T10:30:37.110Z,9.53
2019-03-21T10:33:07.659Z,3.50
2019-03-21T10:35:37.177Z,5.03
2019-03-21T10:38:07.382Z,4.73
2019-03-21T10:40:36.925Z,4.67
2019-03-21T10:43:06.667Z,4.73
2019-03-21T10:45:36.607Z,5.37
2019-03-21T10:48:06.649Z,6.90
2019-03-21T10:50:37.537Z,5.47
2019-03-21T10:53:07.589Z,4.83
2019-03-21T10:55:37.336Z,5.53
2019-03-21T10:58:07.817Z,5.63
2019-03-21T11:00:38.317Z,4.27
2019-03-21T11:03:08.740Z,6.87
2019-03-21T11:05:38.367Z,7.50
2019-03-21T11:08:08.182Z,4.60
2019-03-21T11:10:37.812Z,4.33
2019-03-21T11:13:07.561Z,5.00
2019-03-21T11:15:37.096Z,5.67
2019-03-21T11:18:06.725Z,6.03
2019-03-21T11:20:38.077Z,6.70
2019-03-21T11:23:08.676Z,4.07
2019-03-21T11:25:38.209Z,4.50
2019-03-21T11:28:08.074Z,9.60
2019-03-21T11:30:42.472Z,9.00
2019-03-21T11:33:12.013Z,8.63
2019-03-21T11:35:41.529Z,6.33
2019-03-21T11:38:11.251Z,5.73
2019-03-21T11:40:40.760Z,6.70
2019-03-21T11:43:12.678Z,5.60
2019-03-21T11:45:42.287Z,4.83
2019-03-21T11:48:11.990Z,5.00
2019-03-21T11:50:41.505Z,6.30
2019-03-21T11:53:10.953Z,5.13
2019-03-21T11:55:40.641Z,6.23
2019-03-21T11:58:10.096Z,10.33
2019-03-21T12:00:43.729Z,6.43
2019-03-21T12:03:12.803Z,5.77
2019-03-21T12:05:42.466Z,5.63
2019-03-21T12:08:12.203Z,6.17
2019-03-21T12:10:41.621Z,4.87
2019-03-21T12:13:11.008Z,5.07
2019-03-21T12:15:40.378Z,5.50
2019-03-21T12:18:09.765Z,5.87
2019-03-21T12:20:39.305Z,5.40
2019-03-21T12:23:08.729Z,4.93
2019-03-21T12:25:38.445Z,9.60
2019-03-21T12:28:07.980Z,7.87
2019-03-21T12:30:46.597Z,8.53
2019-03-21T12:33:16.085Z,5.83
2019-03-21T12:35:45.623Z,5.67
2019-03-21T12:38:15.180Z,4.40
2019-03-21T12:40:44.881Z,6.33
2019-03-21T12:43:14.724Z,4.83
2019-03-21T12:45:44.929Z,4.87
2019-03-21T12:48:14.539Z,10.17
2019-03-21T12:50:44.184Z,5.00
2019-03-21T12:53:13.592Z,4.83
2019-03-21T12:55:42.953Z,6.40
2019-03-21T12:58:12.673Z,8.07
2019-03-21T13:00:43.394Z,6.87
2019-03-21T13:03:13.870Z,5.70
2019-03-21T13:05:43.743Z,11.70
2019-03-21T13:08:13.265Z,6.53
2019-03-21T13:10:42.800Z,6.30
2019-03-21T13:13:12.457Z,4.90
2019-03-21T13:15:41.920Z,5.07
2019-03-21T13:18:11.394Z,4.87
2019-03-21T13:20:40.964Z,6.83
2019-03-21T13:23:10.413Z,4.43
2019-03-21T13:25:40.016Z,9.90
2019-03-21T13:28:09.521Z,6.03
2019-03-21T13:30:39.297Z,4.90
2019-03-21T13:33:08.945Z,5.57
2019-03-21T13:35:38.596Z,7.73
2019-03-21T13:38:08.053Z,5.47
2019-03-21T13:40:37.494Z,6.30
2019-03-21T13:43:07.010Z,7.83
2019-03-21T13:45:36.450Z,9.57
2019-03-21T13:48:06.474Z,5.80
2019-03-21T13:50:36.024Z,5.70
2019-03-21T13:53:17.788Z,5.07
2019-03-21T13:55:36.929Z,8.90
2019-03-21T13:58:06.369Z,4.83
2019-03-21T14:00:35.891Z,4.33
2019-03-21T14:03:05.622Z,5.23
2019-03-21T14:05:35.345Z,6.63
2019-03-21T14:08:04.884Z,4.90
2019-03-21T14:10:34.325Z,7.70
2019-03-21T14:13:03.920Z,5.13
2019-03-21T14:15:33.318Z,7.93
2019-03-21T14:18:02.682Z,7.43
2019-03-21T14:20:32.405Z,6.03
2019-03-21T14:23:01.838Z,8.63
2019-03-21T14:25:31.665Z,7.20
2019-03-21T14:28:01.102Z,4.57
2019-03-21T14:30:30.654Z,7.23
2019-03-21T14:33:00.221Z,11.27
2019-03-21T14:35:29.590Z,5.37
2019-03-21T14:37:58.949Z,8.37
2019-03-21T14:40:28.958Z,5.20
2019-03-21T14:42:58.420Z,5.00
2019-03-21T14:45:28.888Z,7.30
2019-03-21T14:47:58.319Z,7.20
2019-03-21T14:50:49.880Z,7.83
2019-03-21T14:53:28.425Z,5.40
2019-03-21T14:55:50.407Z,5.60
2019-03-21T14:58:19.785Z,5.70
2019-03-21T15:00:49.272Z,5.07
2019-03-21T15:03:18.659Z,5.10
2019-03-21T15:05:48.168Z,4.13
2019-03-21T15:08:18.338Z,4.60
2019-03-21T15:10:47.794Z,6.07
2019-03-21T15:13:17.249Z,4.50
2019-03-21T15:15:46.680Z,5.80
2019-03-21T15:18:16.323Z,7.87
2019-03-21T15:20:45.711Z,4.67
2019-03-21T15:23:15.146Z,5.73
2019-03-21T15:25:44.712Z,4.10
2019-03-21T15:28:14.311Z,4.53
2019-03-21T15:30:43.946Z,5.10
2019-03-21T15:33:13.395Z,4.50
2019-03-21T15:35:42.841Z,4.93
2019-03-21T15:38:12.202Z,5.17
2019-03-21T15:40:41.660Z,4.87
2019-03-21T15:43:11.115Z,5.47
2019-03-21T15:45:40.662Z,5.97
2019-03-21T15:48:10.123Z,4.53
2019-03-21T15:50:39.497Z,4.47
2019-03-21T15:53:09.011Z,4.33
2019-03-21T15:55:38.993Z,4.70
2019-03-21T15:58:08.432Z,4.43
2019-03-21T16:00:42.512Z,5.27
2019-03-21T16:03:12.569Z,5.07
2019-03-21T16:05:42.242Z,5.53
2019-03-21T16:08:11.786Z,5.47
2019-03-21T16:10:42.892Z,4.20
2019-03-21T16:13:12.330Z,10.63
2019-03-21T16:15:41.743Z,5.67
2019-03-21T16:18:11.292Z,6.33
2019-03-21T16:20:40.757Z,6.63
2019-03-21T16:23:10.186Z,5.17
2019-03-21T16:25:39.625Z,4.87
2019-03-21T16:28:09.298Z,4.77
2019-03-21T16:30:38.740Z,5.20
2019-03-21T16:33:08.514Z,4.57
2019-03-21T16:35:37.962Z,5.30
2019-03-21T16:38:07.398Z,4.70
2019-03-21T16:40:36.853Z,5.07
2019-03-21T16:43:06.303Z,5.17
2019-03-21T16:45:35.817Z,7.90
2019-03-21T16:48:08.683Z,4.80
2019-03-21T16:50:37.014Z,5.77
2019-03-21T16:53:06.790Z,6.60
2019-03-21T16:55:36.510Z,5.63
2019-03-21T16:58:06.207Z,5.80
2019-03-21T17:00:36.545Z,7.30
2019-03-21T17:03:06.121Z,5.67
2019-03-21T17:05:35.787Z,8.40
2019-03-21T17:08:11.064Z,5.30
2019-03-21T17:10:36.644Z,5.67
2019-03-21T17:13:06.481Z,6.40
2019-03-21T17:15:36.776Z,5.27
2019-03-21T17:18:06.537Z,9.43
2019-03-21T17:20:36.068Z,9.13
2019-03-21T17:23:05.842Z,6.50
2019-03-21T17:25:35.304Z,6.00
2019-03-21T17:28:05.046Z,7.33
2019-03-21T17:30:34.520Z,6.20
2019-03-21T17:33:04.049Z,6.00
2019-03-21T17:35:33.708Z,6.47
2019-03-21T17:38:03.089Z,6.13
2019-03-21T17:40:32.518Z,14.30
2019-03-21T17:43:01.985Z,7.80
2019-03-21T17:45:31.488Z,7.10
2019-03-21T17:48:00.988Z,7.03
2019-03-21T17:50:30.717Z,6.50
2019-03-21T17:53:00.222Z,7.33
2019-03-21T17:55:30.001Z,6.93
2019-03-21T17:57:59.861Z,7.70
2019-03-21T18:00:30.605Z,6.60
2019-03-21T18:03:00.026Z,9.57
2019-03-21T18:05:29.555Z,9.73
2019-03-21T18:07:59.122Z,9.57
2019-03-21T18:10:32.620Z,7.60
2019-03-21T18:13:02.652Z,9.30
2019-03-21T18:15:32.165Z,15.07
2019-03-21T18:18:03.166Z,10.20
2019-03-21T18:20:32.797Z,10.33
2019-03-21T18:23:02.896Z,9.83
2019-03-21T18:25:32.697Z,15.03
2019-03-21T18:28:02.204Z,13.70
2019-03-21T18:30:31.633Z,9.13
2019-03-21T18:33:01.121Z,10.70
2019-03-21T18:35:30.677Z,10.53
2019-03-21T18:38:00.118Z,10.73
2019-03-21T18:40:30.137Z,11.10
2019-03-21T18:42:59.617Z,14.13
2019-03-21T18:45:29.141Z,14.00
2019-03-21T18:47:58.534Z,10.57
2019-03-21T18:50:28.441Z,14.73
2019-03-21T18:52:57.876Z,10.40
2019-03-21T18:55:27.320Z,12.97
2019-03-21T18:57:57.037Z,10.73
2019-03-21T19:00:26.410Z,12.23
2019-03-21T19:02:55.867Z,15.00
2019-03-21T19:05:25.305Z,12.10
2019-03-21T19:07:54.794Z,11.40
2019-03-21T19:10:24.764Z,10.83
2019-03-21T19:12:54.137Z,13.57
2019-03-21T19:15:23.680Z,13.70
2019-03-21T19:17:53.229Z,10.83
2019-03-21T19:20:22.758Z,14.93
2019-03-21T19:22:52.915Z,10.97
2019-03-21T19:25:22.673Z,12.23
2019-03-21T19:27:52.101Z,13.27
2019-03-21T19:30:21.747Z,14.93
2019-03-21T19:32:51.280Z,14.03
2019-03-21T19:35:20.861Z,12.60
2019-03-21T19:37:50.290Z,13.57
2019-03-21T19:40:19.869Z,11.43
2019-03-21T19:42:49.385Z,11.93
2019-03-21T19:45:19.228Z,12.30
2019-03-21T19:47:48.659Z,12.43
2019-03-21T19:50:19.206Z,14.43
2019-03-21T19:52:48.645Z,13.23
2019-03-21T19:55:25.886Z,13.63
2019-03-21T19:57:49.683Z,11.60
2019-03-21T20:00:20.181Z,12.03
2019-03-21T20:02:49.706Z,11.10
2019-03-21T20:05:19.587Z,13.33
2019-03-21T20:07:49.233Z,13.93
2019-03-21T20:10:19.797Z,14.37
2019-03-21T20:12:49.526Z,12.97
2019-03-21T20:15:19.420Z,18.47
2019-03-21T20:17:49.030Z,19.20
2019-03-21T20:20:18.657Z,22.37
2019-03-21T20:22:48.209Z,14.93
2019-03-21T20:25:17.658Z,18.57
2019-03-21T20:27:47.490Z,16.47
2019-03-21T20:30:18.125Z,17.13
2019-03-21T20:32:47.725Z,26.10
2019-03-21T20:35:17.364Z,20.73
2019-03-21T20:37:46.919Z,17.97
2019-03-21T20:40:16.689Z,14.30
2019-03-21T20:42:46.195Z,13.43
2019-03-21T20:45:16.147Z,13.27
2019-03-21T20:47:45.598Z,14.07
2019-03-21T20:50:16.430Z,12.87
2019-03-21T20:52:45.869Z,13.20
2019-03-21T20:55:15.402Z,21.57
2019-03-21T20:57:44.857Z,20.77
2019-03-21T21:00:16.907Z,16.37
2019-03-21T21:02:46.505Z,14.00
2019-03-21T21:05:16.029Z,15.57
2019-03-21T21:07:45.446Z,14.90
2019-03-21T21:10:15.631Z,14.10
2019-03-21T21:12:45.531Z,13.93
2019-03-21T21:15:16.077Z,14.60
2019-03-21T21:17:45.984Z,15.20
2019-03-21T21:20:16.266Z,18.07
2019-03-21T21:22:46.226Z,13.60
2019-03-21T21:25:16.358Z,16.13
2019-03-21T21:27:50.654Z,14.23
2019-03-21T21:30:20.799Z,13.13
2019-03-21T21:32:50.825Z,14.90
2019-03-21T21:35:20.527Z,15.57
2019-03-21T21:37:51.897Z,14.70
2019-03-21T21:40:27.829Z,15.87
2019-03-21T21:42:57.714Z,14.53
2019-03-21T21:45:28.024Z,17.73
2019-03-21T21:47:59.603Z,12.60
2019-03-21T21:50:31.604Z,14.47
2019-03-21T21:53:04.834Z,14.70
2019-03-21T21:55:34.815Z,18.10
2019-03-21T21:58:07.036Z,15.40
2019-03-21T22:00:37.534Z,20.00
2019-03-21T22:03:07.108Z,18.63
2019-03-21T22:05:36.796Z,15.63
2019-03-21T22:08:08.389Z,19.23
2019-03-21T22:10:38.301Z,16.20
2019-03-21T22:13:13.399Z,15.33
2019-03-21T22:15:42.852Z,17.93
2019-03-21T22:18:12.542Z,15.67
2019-03-21T22:20:42.773Z,17.47
2019-03-21T22:23:12.392Z,15.30
2019-03-21T22:25:41.869Z,16.33
2019-03-21T22:28:11.243Z,15.97
2019-03-21T22:30:40.949Z,18.60
2019-03-21T22:33:10.346Z,17.63
2019-03-21T22:35:39.804Z,20.43
2019-03-21T22:38:09.237Z,20.00
2019-03-21T22:40:39.037Z,17.43
2019-03-21T22:43:08.712Z,17.27
2019-03-21T22:45:38.161Z,22.73
2019-03-21T22:48:07.536Z,19.60
2019-03-21T22:50:36.993Z,19.40
2019-03-21T22:53:06.348Z,23.23
2019-03-21T22:55:35.806Z,25.23
2019-03-21T22:58:05.281Z,19.53
2019-03-21T23:00:42.256Z,27.33
2019-03-21T23:03:12.164Z,22.73
2019-03-21T23:05:41.936Z,29.90
2019-03-21T23:08:11.533Z,24.23
2019-03-21T23:10:40.986Z,21.20
2019-03-21T23:13:10.346Z,23.87
2019-03-21T23:15:39.794Z,20.70
2019-03-21T23:18:09.312Z,28.33
2019-03-21T23:20:39.050Z,25.73
2019-03-21T23:23:08.660Z,23.50
2019-03-21T23:25:38.098Z,20.47
2019-03-21T23:28:08.396Z,24.53
2019-03-21T23:30:38.089Z,24.57
2019-03-21T23:33:07.802Z,31.53
2019-03-21T23:35:37.160Z,26.20
2019-03-21T23:38:06.676Z,19.60
2019-03-21T23:40:36.184Z,20.47
2019-03-21T23:43:06.240Z,19.77
2019-03-21T23:45:35.685Z,21.43
2019-03-21T23:48:05.124Z,23.93
2019-03-21T23:50:34.569Z,22.67
2019-03-21T23:53:04.027Z,19.07
2019-03-21T23:55:33.376Z,20.37
2019-03-21T23:58:02.824Z,25.57
